sensor_id;sensor_type;location;lat;lon;timestamp;P1;durP1;ratioP1;P2;durP2;ratioP2
81930;SDS011;71395;43.488;1.472;2024-02-21T19:10:06;14.82;;;6.20;;
81930;SDS011;71395;43.488;1.472;2024-02-21T19:12:32;15.52;;;5.93;;
81930;SDS011;71395;43.488;1.472;2024-02-21T19:14:57;12.10;;;5.90;;
81930;SDS011;71395;43.488;1.472;2024-02-21T19:17:23;12.50;;;5.70;;
81930;SDS011;71395;43.488;1.472;2024-02-21T19:19:49;11.48;;;5.93;;
81930;SDS011;71395;43.488;1.472;2024-02-21T19:22:15;12.88;;;5.90;;
81930;SDS011;71395;43.488;1.472;2024-02-21T19:24:40;13.93;;;6.10;;
81930;SDS011;71395;43.488;1.472;2024-02-21T19:27:06;13.45;;;6.10;;
81930;SDS011;71395;43.488;1.472;2024-02-21T19:29:32;14.07;;;6.88;;
81930;SDS011;71395;43.488;1.472;2024-02-21T19:31:58;16.40;;;6.63;;
81930;SDS011;71395;43.488;1.472;2024-02-21T19:34:24;16.73;;;6.70;;
81930;SDS011;71395;43.488;1.472;2024-02-21T19:36:50;16.42;;;7.45;;
81930;SDS011;71395;43.488;1.472;2024-02-21T19:39:15;18.25;;;8.10;;
81930;SDS011;71395;43.488;1.472;2024-02-21T19:41:41;13.57;;;6.47;;
81930;SDS011;71395;43.488;1.472;2024-02-21T19:44:07;15.30;;;7.47;;
81930;SDS011;71395;43.488;1.472;2024-02-21T19:46:32;17.52;;;6.95;;
81930;SDS011;71395;43.488;1.472;2024-02-21T19:49:01;16.80;;;7.18;;
81930;SDS011;71395;43.488;1.472;2024-02-21T19:51:27;16.83;;;7.60;;
81930;SDS011;71395;43.488;1.472;2024-02-21T19:53:53;19.70;;;8.63;;
81930;SDS011;71395;43.488;1.472;2024-02-21T19:56:20;19.25;;;8.77;;
81930;SDS011;71395;43.488;1.472;2024-02-21T19:58:46;19.17;;;8.85;;
81930;SDS011;71395;43.488;1.472;2024-02-21T20:01:12;15.98;;;7.95;;
81930;SDS011;71395;43.488;1.472;2024-02-21T20:03:38;15.05;;;7.07;;
81930;SDS011;71395;43.488;1.472;2024-02-21T20:06:04;17.35;;;7.18;;
81930;SDS011;71395;43.488;1.472;2024-02-21T20:08:31;13.88;;;6.80;;
81930;SDS011;71395;43.488;1.472;2024-02-21T20:10:57;13.05;;;6.75;;
81930;SDS011;71395;43.488;1.472;2024-02-21T20:13:23;16.23;;;7.22;;
81930;SDS011;71395;43.488;1.472;2024-02-21T20:15:49;17.83;;;7.15;;
81930;SDS011;71395;43.488;1.472;2024-02-21T20:18:15;15.43;;;7.72;;
81930;SDS011;71395;43.488;1.472;2024-02-21T20:20:40;14.70;;;7.85;;
81930;SDS011;71395;43.488;1.472;2024-02-21T20:23:07;14.18;;;7.53;;
81930;SDS011;71395;43.488;1.472;2024-02-21T20:25:43;15.07;;;7.78;;
81930;SDS011;71395;43.488;1.472;2024-02-21T20:28:08;16.83;;;7.13;;
81930;SDS011;71395;43.488;1.472;2024-02-21T20:30:37;15.85;;;7.15;;
81930;SDS011;71395;43.488;1.472;2024-02-21T20:33:04;13.85;;;7.22;;
81930;SDS011;71395;43.488;1.472;2024-02-21T20:35:31;16.65;;;7.18;;
81930;SDS011;71395;43.488;1.472;2024-02-21T20:37:58;14.68;;;7.15;;
81930;SDS011;71395;43.488;1.472;2024-02-21T20:40:24;12.82;;;6.65;;
81930;SDS011;71395;43.488;1.472;2024-02-21T20:42:51;14.50;;;8.13;;
81930;SDS011;71395;43.488;1.472;2024-02-21T20:45:19;13.65;;;6.82;;
81930;SDS011;71395;43.488;1.472;2024-02-21T20:47:45;12.10;;;6.75;;
81930;SDS011;71395;43.488;1.472;2024-02-21T20:50:11;13.23;;;6.03;;
81930;SDS011;71395;43.488;1.472;2024-02-21T20:52:39;12.20;;;6.53;;
81930;SDS011;71395;43.488;1.472;2024-02-21T20:55:05;11.35;;;6.22;;
81930;SDS011;71395;43.488;1.472;2024-02-21T20:57:31;11.32;;;5.70;;
81930;SDS011;71395;43.488;1.472;2024-02-21T21:00:03;12.18;;;6.25;;
81930;SDS011;71395;43.488;1.472;2024-02-21T21:02:31;11.57;;;6.13;;
81930;SDS011;71395;43.488;1.472;2024-02-21T21:04:56;10.38;;;5.90;;
81930;SDS011;71395;43.488;1.472;2024-02-21T21:07:31;10.60;;;5.93;;
81930;SDS011;71395;43.488;1.472;2024-02-21T21:09:57;11.85;;;5.78;;
81930;SDS011;71395;43.488;1.472;2024-02-21T21:12:24;12.85;;;6.22;;
81930;SDS011;71395;43.488;1.472;2024-02-21T21:14:50;10.25;;;5.88;;
81930;SDS011;71395;43.488;1.472;2024-02-21T21:17:16;13.00;;;5.75;;
81930;SDS011;71395;43.488;1.472;2024-02-21T21:19:42;10.25;;;5.50;;
81930;SDS011;71395;43.488;1.472;2024-02-21T21:22:08;12.27;;;5.68;;
81930;SDS011;71395;43.488;1.472;2024-02-21T21:24:34;10.80;;;5.85;;
81930;SDS011;71395;43.488;1.472;2024-02-21T21:27:00;8.90;;;5.15;;
81930;SDS011;71395;43.488;1.472;2024-02-21T21:29:26;10.10;;;5.15;;
81930;SDS011;71395;43.488;1.472;2024-02-21T21:31:51;9.18;;;5.20;;
81930;SDS011;71395;43.488;1.472;2024-02-21T21:34:17;13.40;;;5.32;;
81930;SDS011;71395;43.488;1.472;2024-02-21T21:36:43;9.40;;;4.63;;
81930;SDS011;71395;43.488;1.472;2024-02-21T21:39:09;10.15;;;5.03;;
81930;SDS011;71395;43.488;1.472;2024-02-21T21:41:34;9.68;;;5.43;;
81930;SDS011;71395;43.488;1.472;2024-02-21T21:44:00;15.57;;;5.90;;
81930;SDS011;71395;43.488;1.472;2024-02-21T21:46:26;10.63;;;5.13;;
81930;SDS011;71395;43.488;1.472;2024-02-21T21:48:51;13.85;;;5.20;;
81930;SDS011;71395;43.488;1.472;2024-02-21T21:51:19;11.38;;;5.32;;
81930;SDS011;71395;43.488;1.472;2024-02-21T21:53:53;11.90;;;5.78;;
81930;SDS011;71395;43.488;1.472;2024-02-21T21:56:27;10.15;;;5.28;;
81930;SDS011;71395;43.488;1.472;2024-02-21T21:59:05;11.98;;;5.80;;
81930;SDS011;71395;43.488;1.472;2024-02-21T22:01:37;10.43;;;5.28;;
81930;SDS011;71395;43.488;1.472;2024-02-21T22:04:10;12.05;;;6.25;;
81930;SDS011;71395;43.488;1.472;2024-02-21T22:06:36;10.70;;;5.30;;
81930;SDS011;71395;43.488;1.472;2024-02-21T22:09:01;10.80;;;5.43;;
81930;SDS011;71395;43.488;1.472;2024-02-21T22:11:28;11.38;;;5.57;;
81930;SDS011;71395;43.488;1.472;2024-02-21T22:13:55;11.50;;;5.50;;
81930;SDS011;71395;43.488;1.472;2024-02-21T22:16:21;9.68;;;5.15;;
81930;SDS011;71395;43.488;1.472;2024-02-21T22:18:49;12.93;;;5.78;;
81930;SDS011;71395;43.488;1.472;2024-02-21T22:21:15;10.95;;;5.15;;
81930;SDS011;71395;43.488;1.472;2024-02-21T22:23:42;13.55;;;5.63;;
81930;SDS011;71395;43.488;1.472;2024-02-21T22:26:10;11.30;;;5.43;;
81930;SDS011;71395;43.488;1.472;2024-02-21T22:28:37;10.25;;;4.90;;
81930;SDS011;71395;43.488;1.472;2024-02-21T22:31:03;11.52;;;5.43;;
81930;SDS011;71395;43.488;1.472;2024-02-21T22:33:29;9.80;;;4.82;;
81930;SDS011;71395;43.488;1.472;2024-02-21T22:35:56;10.52;;;5.13;;
81930;SDS011;71395;43.488;1.472;2024-02-21T22:38:22;10.40;;;4.93;;
81930;SDS011;71395;43.488;1.472;2024-02-21T22:40:48;8.70;;;4.55;;
81930;SDS011;71395;43.488;1.472;2024-02-21T22:43:14;10.40;;;5.25;;
81930;SDS011;71395;43.488;1.472;2024-02-21T22:45:40;9.32;;;4.57;;
81930;SDS011;71395;43.488;1.472;2024-02-21T22:48:06;8.95;;;4.50;;
81930;SDS011;71395;43.488;1.472;2024-02-21T22:50:32;9.32;;;4.70;;
81930;SDS011;71395;43.488;1.472;2024-02-21T22:52:57;11.30;;;4.55;;
81930;SDS011;71395;43.488;1.472;2024-02-21T22:55:23;8.25;;;4.28;;
81930;SDS011;71395;43.488;1.472;2024-02-21T22:57:49;9.75;;;4.70;;
81930;SDS011;71395;43.488;1.472;2024-02-21T23:00:15;9.07;;;4.35;;
81930;SDS011;71395;43.488;1.472;2024-02-21T23:02:41;8.30;;;4.05;;
81930;SDS011;71395;43.488;1.472;2024-02-21T23:05:10;9.15;;;4.63;;
81930;SDS011;71395;43.488;1.472;2024-02-21T23:07:36;10.00;;;4.90;;
81930;SDS011;71395;43.488;1.472;2024-02-21T23:10:02;9.15;;;4.30;;
81930;SDS011;71395;43.488;1.472;2024-02-21T23:12:28;9.13;;;4.40;;
81930;SDS011;71395;43.488;1.472;2024-02-21T23:14:55;7.85;;;4.40;;
81930;SDS011;71395;43.488;1.472;2024-02-21T23:17:21;8.82;;;4.20;;
81930;SDS011;71395;43.488;1.472;2024-02-21T23:19:47;9.27;;;4.63;;
81930;SDS011;71395;43.488;1.472;2024-02-21T23:22:13;8.85;;;4.30;;
81930;SDS011;71395;43.488;1.472;2024-02-21T23:24:40;9.52;;;4.35;;
81930;SDS011;71395;43.488;1.472;2024-02-21T23:27:06;8.88;;;4.13;;
81930;SDS011;71395;43.488;1.472;2024-02-21T23:29:32;10.18;;;4.60;;
81930;SDS011;71395;43.488;1.472;2024-02-21T23:31:57;9.40;;;4.28;;
81930;SDS011;71395;43.488;1.472;2024-02-21T23:34:23;8.82;;;3.95;;
81930;SDS011;71395;43.488;1.472;2024-02-21T23:36:50;8.25;;;4.05;;
81930;SDS011;71395;43.488;1.472;2024-02-21T23:39:17;9.05;;;4.53;;
81930;SDS011;71395;43.488;1.472;2024-02-21T23:41:42;7.95;;;3.95;;
81930;SDS011;71395;43.488;1.472;2024-02-21T23:44:08;7.63;;;3.92;;
81930;SDS011;71395;43.488;1.472;2024-02-21T23:46:34;8.07;;;3.88;;
81930;SDS011;71395;43.488;1.472;2024-02-21T23:49:00;7.38;;;3.88;;
81930;SDS011;71395;43.488;1.472;2024-02-21T23:51:31;7.40;;;3.58;;
81930;SDS011;71395;43.488;1.472;2024-02-21T23:53:57;7.18;;;3.75;;
81930;SDS011;71395;43.488;1.472;2024-02-21T23:56:23;8.70;;;4.00;;
81930;SDS011;71395;43.488;1.472;2024-02-21T23:58:49;7.43;;;3.50;;
